This demonstration page uses our WeatherBlox Daily Observations layout. Learn more.

38.89511, -77.03637

Hourly Observations for January 10, 2015

Temp ( °F °C ) Dew Point ( °F °C ) Humidity (%) Winds ( mph kmh ) Pressure ( in mb ) Visibility ( mi km ) Precip ( " mm )
12:52 am 00:52 Clear 27 -2.8 6 -14.4 41 41 NNW 13 20 30.35 1028 10 16.0934 0 0
1:52 am 01:52 Clear 25 -3.9 0 -17.8 33 33 NNW 13 20 30.37 1029 10 16.0934 0 0
2:52 am 02:52 Clear 24 -4.4 -1 -18.3 33 33 NNW 15 24 30.41 1030 10 16.0934 0 0
3:52 am 03:52 Clear 23 -5 0 -17.8 36 36 NW 15 24 30.43 1031 10 16.0934 0 0
4:52 am 04:52 Clear 22 -5.6 1 -17.2 40 40 NNW 12 19 30.46 1032 10 16.0934 0 0
5:52 am 05:52 Clear 21 -6.1 0 -17.8 39 39 NW 13 20 30.5 1033 10 16.0934 0 0
6:52 am 06:52 Clear 20 -6.7 -1 -18.3 40 40 NNW 12 19 30.53 1034 10 16.0934 0 0
7:52 am 07:52 Sunny 19 -7.2 -3 -19.4 37 37 NW 10 17 30.56 1035 10 16.0934 0 0
8:52 am 08:52 Sunny 20 -6.7 -3 -19.4 36 36 NNW 14 22 30.6 1036 10 16.0934 0 0
9:52 am 09:52 Sunny 22 -5.6 -4 -20 31 31 NW 13 20 30.63 1037 10 16.0934 0 0
10:52 am 10:52 Sunny 23 -5 -4 -20 30 30 VRB 6 9 30.63 1037 10 16.0934 0 0
11:52 am 11:52 Sunny 26 -3.3 -4 -20 26 26 WNW 7 11 30.6 1036 10 16.0934 0 0
12:52 pm 12:52 Sunny 27 -2.8 -5 -20.6 24 24 WNW 7 11 30.59 1036 10 16.0934 0 0
1:52 pm 13:52 Sunny 28 -2.2 -5 -20.6 23 23 NNW 10 17 30.57 1035 10 16.0934 0 0
2:52 pm 14:52 Sunny 30 -1.1 -5 -20.6 21 21 NW 10 17 30.56 1035 10 16.0934 0 0
3:52 pm 15:52 Sunny 30 -1.1 -3 -19.4 24 24 NW 6 9 30.57 1035 10 16.0934 0 0
4:52 pm 16:52 Sunny 28 -2.2 -4 -20 24 24 Calm 30.56 1035 10 16.0934 0 0
5:52 pm 17:52 Clear 27 -2.8 -1 -18.3 29 29 SSE 3 6 30.58 1036 10 16.0934 0 0
6:52 pm 18:52 Clear 27 -2.8 2 -16.7 34 34 ESE 3 6 30.59 1036 10 16.0934 0 0
7:52 pm 19:52 Clear 25 -3.9 4 -15.6 40 40 Calm 30.59 1036 10 16.0934 0 0
8:52 pm 20:52 Clear 25 -3.9 0 -17.8 33 33 ESE 3 6 30.6 1036 10 16.0934 0 0
9:52 pm 21:52 Clear 25 -3.9 0 -17.8 33 33 SSE 3 6 30.6 1036 10 16.0934 0 0
10:52 pm 22:52 Clear 25 -3.9 3 -16.1 39 39 Calm 30.62 1037 10 16.0934 0 0
11:52 pm 23:52 Partly Cloudy 24 -4.4 4 -15.6 42 42 Calm 30.62 1037 10 16.0934 0 0

Powered by AerisWeather